createdAt,value
2023-11-21T00:00:18.093Z,-3.26
2023-11-21T00:02:21.301Z,-3.28
2023-11-21T00:04:24.462Z,-3.27
2023-11-21T00:06:27.629Z,-3.23
2023-11-21T00:08:31.299Z,-3.30
2023-11-21T00:10:34.391Z,-3.27
2023-11-21T00:12:37.881Z,-3.23
2023-11-21T00:14:41.096Z,-3.23
2023-11-21T00:16:44.269Z,-3.26
2023-11-21T00:18:48.009Z,-3.24
2023-11-21T00:20:50.976Z,-3.20
2023-11-21T00:22:53.916Z,-3.24
2023-11-21T00:24:56.804Z,-3.17
2023-11-21T00:27:00.079Z,-3.14
2023-11-21T00:29:03.233Z,-3.18
2023-11-21T00:31:06.552Z,-3.21
2023-11-21T00:33:09.703Z,-3.20
2023-11-21T00:35:12.823Z,-3.21
2023-11-21T00:37:16.306Z,-3.20
2023-11-21T00:39:19.262Z,-3.20
2023-11-21T00:41:22.210Z,-3.20
2023-11-21T00:43:25.861Z,-3.19
2023-11-21T00:45:29.090Z,-3.17
2023-11-21T00:47:32.080Z,-3.14
2023-11-21T00:49:35.352Z,-3.13
2023-11-21T00:51:38.455Z,-3.17
2023-11-21T00:53:41.401Z,-3.18
2023-11-21T00:55:44.329Z,-3.18
2023-11-21T00:57:47.286Z,-3.24
2023-11-21T00:59:50.256Z,-3.23
2023-11-21T01:01:53.231Z,-3.22
2023-11-21T01:03:56.213Z,-3.16
2023-11-21T01:05:59.193Z,-3.15
2023-11-21T01:08:02.296Z,-3.15
2023-11-21T01:10:08.904Z,-3.16
2023-11-21T01:12:12.862Z,-3.16
2023-11-21T01:14:15.881Z,-3.13
2023-11-21T01:16:18.929Z,-3.13
2023-11-21T01:18:21.964Z,-3.12
2023-11-21T01:20:25.181Z,-3.10
2023-11-21T01:22:28.185Z,-3.12
2023-11-21T01:24:31.499Z,-3.12
2023-11-21T01:26:35.336Z,-3.11
2023-11-21T01:28:38.725Z,-3.08
2023-11-21T01:30:41.935Z,-3.12
2023-11-21T01:32:45.510Z,-3.12
2023-11-21T01:34:49.631Z,-3.10
2023-11-21T01:36:52.549Z,-3.08
2023-11-21T01:38:56.148Z,-3.06
2023-11-21T01:41:02.079Z,-3.09
2023-11-21T01:43:05.090Z,-3.09
2023-11-21T01:45:08.603Z,-3.08
2023-11-21T01:47:12.271Z,-3.07
2023-11-21T01:49:16.363Z,-3.05
2023-11-21T01:51:20.059Z,-3.04
2023-11-21T01:53:23.152Z,-3.05
2023-11-21T01:55:28.138Z,-3.02
2023-11-21T01:57:32.240Z,-3.00
2023-11-21T01:59:43.639Z,-3.03
2023-11-21T02:01:48.190Z,-3.01
2023-11-21T02:03:51.293Z,-3.06
2023-11-21T02:05:55.184Z,-3.06
2023-11-21T02:07:58.061Z,-3.02
2023-11-21T02:10:01.156Z,-3.04
2023-11-21T02:12:06.547Z,-3.05
2023-11-21T02:14:10.774Z,-3.01
2023-11-21T02:16:14.262Z,-3.00
2023-11-21T02:18:19.186Z,-3.00
2023-11-21T02:20:24.143Z,-2.95
2023-11-21T02:22:32.239Z,-2.97
2023-11-21T02:24:35.158Z,-3.00
2023-11-21T02:26:38.191Z,-3.00
2023-11-21T02:28:41.812Z,-2.97
2023-11-21T02:30:45.066Z,-2.92
2023-11-21T02:32:49.562Z,-2.93
2023-11-21T02:35:02.332Z,-2.91
2023-11-21T02:37:07.838Z,-2.91
2023-11-21T02:39:11.610Z,-2.90
2023-11-21T02:41:14.891Z,-2.92
2023-11-21T02:43:18.056Z,-2.97
2023-11-21T02:45:22.759Z,-2.92
2023-11-21T02:47:26.049Z,-2.91
2023-11-21T02:49:29.850Z,-2.90
2023-11-21T02:51:32.807Z,-2.83
2023-11-21T02:53:35.673Z,-2.83
2023-11-21T02:55:38.733Z,-2.81
2023-11-21T02:57:41.871Z,-2.83
2023-11-21T02:59:44.766Z,-2.82
2023-11-21T03:01:47.890Z,-2.82
2023-11-21T03:03:52.599Z,-2.82
2023-11-21T03:05:55.530Z,-2.85
2023-11-21T03:07:58.567Z,-2.83
2023-11-21T03:10:02.151Z,-2.80
2023-11-21T03:12:07.059Z,-2.81
2023-11-21T03:14:10.202Z,-2.77
2023-11-21T03:16:13.940Z,-2.77
2023-11-21T03:18:17.199Z,-2.79
2023-11-21T03:20:20.210Z,-2.76
2023-11-21T03:22:23.212Z,-2.74
2023-11-21T03:24:26.398Z,-2.74
2023-11-21T03:26:31.161Z,-2.78
2023-11-21T03:28:34.188Z,-2.76
2023-11-21T03:30:37.150Z,-2.77
2023-11-21T03:32:40.328Z,-2.76
2023-11-21T03:35:09.522Z,-2.77
2023-11-21T03:37:12.701Z,-2.77
2023-11-21T03:39:15.714Z,-2.72
2023-11-21T03:41:18.614Z,-2.75
2023-11-21T03:43:21.610Z,-2.74
2023-11-21T03:45:24.462Z,-2.72
2023-11-21T03:47:29.665Z,-2.71
2023-11-21T03:49:32.890Z,-2.71
2023-11-21T03:51:35.818Z,-2.67
2023-11-21T03:53:38.698Z,-2.63
2023-11-21T03:55:41.637Z,-2.62
2023-11-21T03:57:45.132Z,-2.59
2023-11-21T03:59:48.059Z,-2.60
2023-11-21T04:01:50.940Z,-2.62
2023-11-21T04:03:53.980Z,-2.62
2023-11-21T04:05:56.992Z,-2.59
2023-11-21T04:07:59.940Z,-2.56
2023-11-21T04:10:02.981Z,-2.51
2023-11-21T04:12:07.168Z,-2.53
2023-11-21T04:14:10.641Z,-2.61
2023-11-21T04:16:14.195Z,-2.60
2023-11-21T04:18:17.117Z,-2.59
2023-11-21T04:20:19.992Z,-2.63
2023-11-21T04:22:22.925Z,-2.62
2023-11-21T04:24:25.843Z,-2.59
2023-11-21T04:26:28.860Z,-2.60
2023-11-21T04:28:32.034Z,-2.56
2023-11-21T04:30:35.065Z,-2.53
2023-11-21T04:32:38.254Z,-2.56
2023-11-21T04:34:41.299Z,-2.53
2023-11-21T04:36:44.725Z,-2.52
2023-11-21T04:38:47.781Z,-2.52
2023-11-21T04:40:50.865Z,-2.54
2023-11-21T04:42:53.864Z,-2.53
2023-11-21T04:44:56.904Z,-2.57
2023-11-21T04:46:59.879Z,-2.52
2023-11-21T04:49:02.912Z,-2.49
2023-11-21T04:51:06.321Z,-2.49
2023-11-21T04:53:09.217Z,-2.49
2023-11-21T04:55:12.352Z,-2.45
2023-11-21T04:57:15.574Z,-2.42
2023-11-21T04:59:18.488Z,-2.43
2023-11-21T05:01:21.697Z,-2.40
2023-11-21T05:03:25.507Z,-2.37
2023-11-21T05:05:28.699Z,-2.38
2023-11-21T05:07:32.714Z,-2.36
2023-11-21T05:11:50.582Z,-2.36
2023-11-21T05:13:54.240Z,-2.36
2023-11-21T05:16:01.178Z,-2.30
2023-11-21T05:18:04.426Z,-2.29
2023-11-21T05:20:10.961Z,-2.31
2023-11-21T05:22:14.009Z,-2.29
2023-11-21T05:24:16.968Z,-2.26
2023-11-21T05:26:19.963Z,-2.24
2023-11-21T05:28:22.963Z,-2.21
2023-11-21T05:30:25.841Z,-2.19
2023-11-21T05:32:29.084Z,-2.17
2023-11-21T05:34:32.115Z,-2.15
2023-11-21T05:36:35.191Z,-2.14
2023-11-21T05:38:38.228Z,-2.16
2023-11-21T05:40:41.669Z,-2.13
2023-11-21T05:42:45.965Z,-2.13
2023-11-21T05:44:48.929Z,-2.13
2023-11-21T05:46:52.042Z,-2.11
2023-11-21T05:48:55.018Z,-2.07
2023-11-21T05:50:57.952Z,-2.02
2023-11-21T05:53:02.060Z,-2.00
2023-11-21T05:55:08.739Z,-1.97
2023-11-21T05:57:11.662Z,-1.93
2023-11-21T05:59:14.660Z,-1.90
2023-11-21T06:01:17.592Z,-1.86
2023-11-21T06:03:20.589Z,-1.80
2023-11-21T06:05:26.008Z,-1.77
2023-11-21T06:07:32.545Z,-1.74
2023-11-21T06:09:36.786Z,-1.73
2023-11-21T06:11:39.669Z,-1.71
2023-11-21T06:13:43.386Z,-1.73
2023-11-21T06:15:46.352Z,-1.71
2023-11-21T06:17:54.014Z,-1.72
2023-11-21T06:19:57.780Z,-1.69
2023-11-21T06:22:01.036Z,-1.70
2023-11-21T06:24:04.127Z,-1.68
2023-11-21T06:26:07.512Z,-1.67
2023-11-21T06:28:10.427Z,-1.66
2023-11-21T06:30:15.492Z,-1.63
2023-11-21T06:32:19.661Z,-1.63
2023-11-21T06:34:23.086Z,-1.61
2023-11-21T06:36:26.220Z,-1.57
2023-11-21T06:38:31.280Z,-1.58
2023-11-21T06:40:35.218Z,-1.58
2023-11-21T06:42:39.783Z,-1.55
2023-11-21T06:44:42.979Z,-1.52
2023-11-21T06:46:46.360Z,-1.52
2023-11-21T06:48:50.941Z,-1.51
2023-11-21T06:50:54.053Z,-1.50
2023-11-21T06:52:57.056Z,-1.49
2023-11-21T06:55:00.174Z,-1.46
2023-11-21T06:57:04.107Z,-1.45
2023-11-21T06:59:07.140Z,-1.44
2023-11-21T07:01:10.159Z,-1.41
2023-11-21T07:03:13.180Z,-1.40
2023-11-21T07:05:16.973Z,-1.40
2023-11-21T07:07:21.004Z,-1.40
2023-11-21T07:09:23.957Z,-1.36
2023-11-21T07:11:27.214Z,-1.34
2023-11-21T07:13:30.638Z,-1.31
2023-11-21T07:15:34.144Z,-1.30
2023-11-21T07:17:41.174Z,-1.28
2023-11-21T07:19:44.898Z,-1.26
2023-11-21T07:21:48.129Z,-1.29
2023-11-21T07:23:51.112Z,-1.24
2023-11-21T07:25:54.083Z,-1.20
2023-11-21T07:27:57.574Z,-1.17
2023-11-21T07:30:00.483Z,-1.13
2023-11-21T07:32:03.844Z,-1.14
2023-11-21T07:34:07.133Z,-1.10
2023-11-21T07:36:11.806Z,-1.07
2023-11-21T07:38:14.726Z,-1.05
2023-11-21T07:40:18.346Z,-0.98
2023-11-21T07:42:22.331Z,-0.94
2023-11-21T07:44:25.573Z,-0.94
2023-11-21T07:46:29.047Z,-0.88
2023-11-21T07:48:35.098Z,-0.89
2023-11-21T07:50:39.171Z,-0.92
2023-11-21T07:52:42.089Z,-0.90
2023-11-21T07:54:45.049Z,-0.87
2023-11-21T07:56:47.997Z,-0.85
2023-11-21T07:58:53.040Z,-0.88
2023-11-21T08:00:57.466Z,-0.89
2023-11-21T08:03:00.991Z,-0.88
2023-11-21T08:05:04.196Z,-0.88
2023-11-21T08:07:07.308Z,-0.82
2023-11-21T08:09:10.109Z,-0.78
2023-11-21T08:11:13.512Z,-0.77
2023-11-21T08:13:18.703Z,-0.76
2023-11-21T08:15:21.486Z,-0.73
2023-11-21T08:17:24.907Z,-0.71
2023-11-21T08:19:28.663Z,-0.64
2023-11-21T08:21:32.558Z,-0.64
2023-11-21T08:23:35.933Z,-0.63
2023-11-21T08:25:38.842Z,-0.65
2023-11-21T08:27:41.620Z,-0.68
2023-11-21T08:29:44.771Z,-0.67
2023-11-21T08:31:50.380Z,-0.66
2023-11-21T08:33:56.198Z,-0.67
2023-11-21T08:35:59.155Z,-0.69
2023-11-21T08:38:02.314Z,-0.68
2023-11-21T08:40:10.665Z,-0.68
2023-11-21T08:42:13.575Z,-0.68
2023-11-21T08:44:17.810Z,-0.67
2023-11-21T08:46:21.132Z,-0.65
2023-11-21T08:48:24.533Z,-0.60
2023-11-21T08:50:27.400Z,-0.58
2023-11-21T08:52:30.295Z,-0.54
2023-11-21T08:54:33.279Z,-0.50
2023-11-21T08:56:36.550Z,-0.49
2023-11-21T08:58:39.564Z,-0.48
2023-11-21T09:00:42.709Z,-0.51
2023-11-21T09:02:46.706Z,-0.51
2023-11-21T09:04:49.860Z,-0.52
2023-11-21T09:06:52.904Z,-0.52
2023-11-21T09:08:55.780Z,-0.50
2023-11-21T09:10:58.776Z,-0.51
2023-11-21T09:13:01.688Z,-0.54
2023-11-21T09:15:09.081Z,-0.59
2023-11-21T09:17:15.811Z,-0.58
2023-11-21T09:19:18.848Z,-0.58
2023-11-21T09:21:21.826Z,-0.63
2023-11-21T09:23:25.348Z,-0.64
2023-11-21T09:25:30.187Z,-0.65
2023-11-21T09:27:33.294Z,-0.67
2023-11-21T09:29:36.205Z,-0.65
2023-11-21T09:31:40.065Z,-0.71
2023-11-21T09:33:45.308Z,-0.72
2023-11-21T09:35:49.105Z,-0.74
2023-11-21T09:37:53.735Z,-0.67
2023-11-21T09:39:56.664Z,-0.63
2023-11-21T09:42:17.571Z,-0.68
2023-11-21T09:44:29.664Z,-0.74
2023-11-21T09:46:32.801Z,-0.73
2023-11-21T09:48:38.445Z,-0.69
2023-11-21T09:50:43.652Z,-0.67
2023-11-21T09:53:06.187Z,-0.67
2023-11-21T09:55:09.784Z,-0.66
2023-11-21T09:57:12.820Z,-0.68
2023-11-21T09:59:17.587Z,-0.68
2023-11-21T10:01:22.520Z,-0.66
2023-11-21T10:03:25.932Z,-0.68
2023-11-21T10:05:32.647Z,-0.76
2023-11-21T10:07:37.848Z,-0.85
2023-11-21T10:09:41.339Z,-0.92
2023-11-21T10:11:47.910Z,-0.94
2023-11-21T10:13:55.081Z,-0.89
2023-11-21T10:16:01.189Z,-0.92
2023-11-21T10:18:05.235Z,-0.96
2023-11-21T10:20:14.843Z,-1.01
2023-11-21T10:22:18.824Z,-1.11
2023-11-21T10:24:21.671Z,-1.10
2023-11-21T10:26:30.937Z,-1.03
2023-11-21T10:28:38.992Z,-1.03
2023-11-21T10:30:41.959Z,-1.00
2023-11-21T10:32:45.160Z,-1.13
2023-11-21T10:34:58.796Z,-1.14
2023-11-21T10:37:18.073Z,-1.11
2023-11-21T10:39:25.076Z,-1.04
2023-11-21T10:41:27.974Z,-1.06
2023-11-21T10:43:32.047Z,-1.05
2023-11-21T10:45:36.150Z,-1.09
2023-11-21T10:47:43.233Z,-1.13
2023-11-21T10:49:49.114Z,-1.32
2023-11-21T10:51:57.296Z,-1.34
2023-11-21T10:54:01.818Z,-1.32
2023-11-21T10:56:10.986Z,-1.26
2023-11-21T10:58:16.046Z,-1.22
2023-11-21T11:00:23.304Z,-1.20
2023-11-21T11:02:29.847Z,-1.27
2023-11-21T11:04:33.537Z,-1.26
2023-11-21T11:06:37.017Z,-1.30
2023-11-21T11:08:40.970Z,-1.35
2023-11-21T11:10:44.488Z,-1.29
2023-11-21T11:12:48.743Z,-1.36
2023-11-21T11:14:53.465Z,-1.38
2023-11-21T11:16:57.421Z,-1.38
2023-11-21T11:19:00.376Z,-1.40
2023-11-21T11:21:12.680Z,-1.49
2023-11-21T11:23:40.264Z,-1.52
2023-11-21T11:25:55.785Z,-1.54
2023-11-21T11:28:21.839Z,-1.55
2023-11-21T11:30:39.944Z,-1.60
2023-11-21T11:33:56.487Z,-1.60
2023-11-21T11:36:07.313Z,-1.60
2023-11-21T11:38:12.210Z,-1.71
2023-11-21T11:40:16.533Z,-1.66
2023-11-21T11:42:21.292Z,-1.67
2023-11-21T11:44:47.652Z,-1.72
2023-11-21T11:46:54.827Z,-1.87
2023-11-21T11:49:05.023Z,-1.84
2023-11-21T11:51:23.303Z,-1.89
2023-11-21T11:53:28.800Z,-1.87
2023-11-21T11:55:35.737Z,-1.89
2023-11-21T11:57:44.247Z,-1.93
2023-11-21T12:00:11.183Z,-1.93
2023-11-21T12:02:14.547Z,-1.94
2023-11-21T12:04:24.684Z,-1.93
2023-11-21T12:06:36.939Z,-1.89
2023-11-21T12:08:40.007Z,-1.92
2023-11-21T12:10:43.987Z,-1.89
2023-11-21T12:12:51.283Z,-1.90
2023-11-21T12:14:54.774Z,-1.91
2023-11-21T12:16:57.938Z,-1.96
2023-11-21T12:19:03.461Z,-1.96
2023-11-21T12:21:11.232Z,-1.94
2023-11-21T12:23:16.656Z,-1.93
2023-11-21T12:25:22.706Z,-2.00
2023-11-21T12:27:26.015Z,-1.97
2023-11-21T12:29:31.046Z,-1.96
2023-11-21T12:31:34.027Z,-2.00
2023-11-21T12:33:37.199Z,-2.01
2023-11-21T12:35:41.305Z,-2.03
2023-11-21T12:37:44.531Z,-2.07
2023-11-21T12:39:47.392Z,-2.08
2023-11-21T12:41:50.397Z,-2.17
2023-11-21T12:43:54.210Z,-2.22
2023-11-21T12:46:12.828Z,-2.20
2023-11-21T12:48:17.955Z,-2.21
2023-11-21T12:50:36.266Z,-2.23
2023-11-21T12:52:51.666Z,-2.28
2023-11-21T12:55:01.076Z,-2.24
2023-11-21T12:57:11.251Z,-2.24
2023-11-21T12:59:20.792Z,-2.22
2023-11-21T13:01:31.251Z,-2.28
2023-11-21T13:03:39.163Z,-2.26
2023-11-21T13:05:47.963Z,-2.29
2023-11-21T13:07:55.901Z,-2.30
2023-11-21T13:09:59.236Z,-2.30
2023-11-21T13:12:17.829Z,-2.28
2023-11-21T13:14:41.681Z,-2.31
2023-11-21T13:16:47.901Z,-2.32
2023-11-21T13:18:50.955Z,-2.35
2023-11-21T13:20:59.289Z,-2.31
2023-11-21T13:23:08.913Z,-2.32
2023-11-21T13:25:11.754Z,-2.36
2023-11-21T13:27:16.734Z,-2.38
2023-11-21T13:29:19.622Z,-2.36
2023-11-21T13:31:27.865Z,-2.36
2023-11-21T13:33:31.482Z,-2.35
2023-11-21T13:35:45.248Z,-2.37
2023-11-21T13:37:57.167Z,-2.38
2023-11-21T13:40:00.180Z,-2.41
2023-11-21T13:42:06.538Z,-2.41
2023-11-21T13:44:36.793Z,-2.42
2023-11-21T13:46:39.806Z,-2.43
2023-11-21T13:48:58.442Z,-2.43
2023-11-21T13:51:41.741Z,-2.41
2023-11-21T13:53:58.328Z,-2.47
2023-11-21T13:56:05.673Z,-2.48
2023-11-21T13:58:15.127Z,-2.54
2023-11-21T14:00:44.741Z,-2.52
2023-11-21T14:02:53.612Z,-2.50
2023-11-21T14:05:00.609Z,-2.51
2023-11-21T14:07:31.661Z,-2.61
2023-11-21T14:10:09.821Z,-2.64
2023-11-21T14:12:26.893Z,-2.65
2023-11-21T14:14:29.867Z,-2.70
2023-11-21T14:16:32.809Z,-2.70
2023-11-21T14:18:40.112Z,-2.73
2023-11-21T14:20:45.655Z,-2.69
2023-11-21T14:22:48.505Z,-2.69
2023-11-21T14:24:53.655Z,-2.73
2023-11-21T14:26:56.436Z,-2.78
2023-11-21T14:29:00.613Z,-2.75
2023-11-21T14:31:04.512Z,-2.80
2023-11-21T14:33:09.777Z,-2.85
2023-11-21T14:35:12.740Z,-2.82
2023-11-21T14:37:15.889Z,-2.85
2023-11-21T14:39:40.909Z,-2.90
2023-11-21T14:41:46.070Z,-2.85
2023-11-21T14:43:51.146Z,-2.85
2023-11-21T14:45:54.295Z,-2.91
2023-11-21T14:48:05.941Z,-2.86
2023-11-21T14:53:15.906Z,-2.98
2023-11-21T14:56:06.276Z,-2.95
2023-11-21T14:58:43.402Z,-3.02
2023-11-21T15:00:49.223Z,-3.00
2023-11-21T15:02:52.316Z,-3.01
2023-11-21T15:05:05.160Z,-2.98
2023-11-21T15:07:13.737Z,-2.95
2023-11-21T15:12:48.129Z,-3.06
2023-11-21T15:15:02.445Z,-3.06
2023-11-21T15:17:37.348Z,-3.05
2023-11-21T15:19:51.440Z,-3.05
2023-11-21T15:21:55.479Z,-3.08
2023-11-21T15:24:01.290Z,-3.08
2023-11-21T15:26:06.278Z,-3.11
2023-11-21T15:28:10.368Z,-3.09
2023-11-21T15:30:13.325Z,-3.06
2023-11-21T15:32:16.348Z,-3.02
2023-11-21T15:34:20.572Z,-3.06
2023-11-21T15:37:59.277Z,-3.06
2023-11-21T15:40:02.522Z,-3.15
2023-11-21T15:42:08.671Z,-3.18
2023-11-21T15:44:12.908Z,-3.15
2023-11-21T15:46:15.779Z,-3.23
2023-11-21T15:48:19.322Z,-3.19
2023-11-21T15:50:22.693Z,-3.22
2023-11-21T15:52:25.858Z,-3.20
2023-11-21T15:54:28.920Z,-3.30
2023-11-21T15:56:31.665Z,-3.28
2023-11-21T15:58:35.536Z,-3.26
2023-11-21T16:00:38.698Z,-3.31
2023-11-21T16:02:41.824Z,-3.26
2023-11-21T16:04:44.648Z,-3.30
2023-11-21T16:06:49.065Z,-3.33
2023-11-21T16:08:51.919Z,-3.40
2023-11-21T16:10:54.744Z,-3.44
2023-11-21T16:12:58.020Z,-3.40
2023-11-21T16:15:03.611Z,-3.42
2023-11-21T16:17:10.471Z,-3.47
2023-11-21T16:19:13.511Z,-3.51
2023-11-21T16:21:16.760Z,-3.48
2023-11-21T16:23:19.685Z,-3.50
2023-11-21T16:25:22.571Z,-3.52
2023-11-21T16:27:25.372Z,-3.53
2023-11-21T16:29:28.222Z,-3.53
2023-11-21T16:31:30.940Z,-3.65
2023-11-21T16:33:33.721Z,-3.62
2023-11-21T16:35:40.834Z,-3.67
2023-11-21T16:37:44.429Z,-3.68
2023-11-21T16:39:49.054Z,-3.67
2023-11-21T16:41:52.806Z,-3.57
2023-11-21T16:43:55.726Z,-3.59
2023-11-21T16:45:58.704Z,-3.55
2023-11-21T16:48:04.262Z,-3.63
2023-11-21T16:50:07.662Z,-3.61
2023-11-21T16:52:10.602Z,-3.55
2023-11-21T16:54:16.495Z,-3.57
2023-11-21T16:56:19.574Z,-3.69
2023-11-21T16:58:22.928Z,-3.69
2023-11-21T17:00:25.765Z,-3.66
2023-11-21T17:02:28.619Z,-3.69
2023-11-21T17:04:31.576Z,-3.73
2023-11-21T17:06:34.346Z,-3.76
2023-11-21T17:08:37.974Z,-3.87
2023-11-21T17:10:40.896Z,-3.88
2023-11-21T17:12:43.721Z,-3.93
2023-11-21T17:14:50.500Z,-3.89
2023-11-21T17:16:53.498Z,-3.92
2023-11-21T17:18:56.372Z,-4.06
2023-11-21T17:20:59.206Z,-4.07
2023-11-21T17:23:04.256Z,-4.04
2023-11-21T17:25:10.108Z,-4.03
2023-11-21T17:27:13.218Z,-3.96
2023-11-21T17:29:17.360Z,-3.94
2023-11-21T17:31:20.310Z,-3.96
2023-11-21T17:33:23.170Z,-4.04
2023-11-21T17:35:26.167Z,-4.11
2023-11-21T17:37:29.076Z,-4.14
2023-11-21T17:39:31.901Z,-4.06
2023-11-21T17:41:35.186Z,-4.12
2023-11-21T17:43:41.998Z,-4.07
2023-11-21T17:45:45.609Z,-4.05
2023-11-21T17:47:48.531Z,-4.04
2023-11-21T17:49:51.434Z,-4.05
2023-11-21T17:51:54.486Z,-4.09
2023-11-21T17:54:02.478Z,-4.09
2023-11-21T17:56:05.455Z,-4.09
2023-11-21T17:58:10.424Z,-4.09
2023-11-21T18:00:14.950Z,-4.11
2023-11-21T18:02:18.334Z,-4.07
2023-11-21T18:04:24.099Z,-4.05
2023-11-21T18:06:27.162Z,-4.07
2023-11-21T18:08:29.988Z,-4.08
2023-11-21T18:10:33.466Z,-4.14
2023-11-21T18:12:36.440Z,-4.11
2023-11-21T18:14:39.375Z,-4.17
2023-11-21T18:16:43.635Z,-4.18
2023-11-21T18:18:46.639Z,-4.14
2023-11-21T18:20:49.480Z,-4.20
2023-11-21T18:22:52.368Z,-4.12
2023-11-21T18:24:57.577Z,-4.22
2023-11-21T18:27:01.131Z,-4.27
2023-11-21T18:29:04.120Z,-4.28
2023-11-21T18:31:08.423Z,-4.28
2023-11-21T18:33:11.757Z,-4.38
2023-11-21T18:35:14.885Z,-4.30
2023-11-21T18:37:17.876Z,-4.33
2023-11-21T18:39:20.824Z,-4.42
2023-11-21T18:41:24.627Z,-4.42
2023-11-21T18:43:27.738Z,-4.40
2023-11-21T18:45:30.474Z,-4.37
2023-11-21T18:47:34.092Z,-4.49
2023-11-21T18:49:37.258Z,-4.44
2023-11-21T18:51:40.132Z,-4.44
2023-11-21T18:53:43.002Z,-4.54
2023-11-21T18:55:46.057Z,-4.53
2023-11-21T18:57:48.878Z,-4.60
2023-11-21T18:59:51.828Z,-4.62
2023-11-21T19:01:54.844Z,-4.60
2023-11-21T19:03:59.364Z,-4.61
2023-11-21T19:06:02.287Z,-4.65
2023-11-21T19:08:05.281Z,-4.73
2023-11-21T19:10:11.304Z,-4.76
2023-11-21T19:12:15.952Z,-4.74
2023-11-21T19:14:18.923Z,-4.84
2023-11-21T19:16:22.618Z,-4.79
2023-11-21T19:18:25.571Z,-4.85
2023-11-21T19:20:28.527Z,-4.76
2023-11-21T19:22:31.409Z,-4.74
2023-11-21T19:24:34.169Z,-4.72
2023-11-21T19:26:40.314Z,-4.80
2023-11-21T19:28:43.595Z,-4.85
2023-11-21T19:30:46.888Z,-4.82
2023-11-21T19:32:50.200Z,-4.81
2023-11-21T19:34:53.303Z,-4.91
2023-11-21T19:36:56.572Z,-4.85
2023-11-21T19:38:59.422Z,-4.85
2023-11-21T19:41:02.250Z,-4.92
2023-11-21T19:43:05.131Z,-4.83
2023-11-21T19:45:09.624Z,-4.80
2023-11-21T19:47:12.568Z,-4.81
2023-11-21T19:49:16.543Z,-4.79
2023-11-21T19:51:19.713Z,-4.81
2023-11-21T19:53:22.539Z,-4.85
2023-11-21T19:55:25.374Z,-4.75
2023-11-21T19:57:28.176Z,-4.77
2023-11-21T19:59:32.918Z,-4.86
2023-11-21T20:01:35.983Z,-4.90
2023-11-21T20:03:40.078Z,-4.97
2023-11-21T20:05:43.027Z,-5.03
2023-11-21T20:07:45.938Z,-4.98
2023-11-21T20:09:50.878Z,-5.05
2023-11-21T20:11:54.914Z,-5.04
2023-11-21T20:13:59.052Z,-5.00
2023-11-21T20:16:02.255Z,-5.04
2023-11-21T20:18:05.150Z,-5.06
2023-11-21T20:20:08.357Z,-5.16
2023-11-21T20:22:11.327Z,-5.22
2023-11-21T20:24:14.550Z,-5.17
2023-11-21T20:26:26.866Z,-5.17
2023-11-21T20:28:30.693Z,-5.20
2023-11-21T20:30:35.202Z,-5.26
2023-11-21T20:32:38.287Z,-5.31
2023-11-21T20:34:41.326Z,-5.40
2023-11-21T20:36:49.189Z,-5.44
2023-11-21T20:38:53.170Z,-5.44
2023-11-21T20:40:56.881Z,-5.44
2023-11-21T20:43:10.575Z,-5.45
2023-11-21T20:45:17.282Z,-5.41
2023-11-21T20:47:20.388Z,-5.50
2023-11-21T20:49:24.332Z,-5.51
2023-11-21T20:51:30.524Z,-5.55
2023-11-21T20:53:33.494Z,-5.58
2023-11-21T20:55:36.348Z,-5.61
2023-11-21T20:57:40.790Z,-5.64
2023-11-21T20:59:44.427Z,-5.80
2023-11-21T21:01:47.580Z,-5.69
2023-11-21T21:03:50.594Z,-5.75
2023-11-21T21:05:53.598Z,-5.74
2023-11-21T21:07:56.869Z,-5.74
2023-11-21T21:10:02.610Z,-5.76
2023-11-21T21:12:12.736Z,-5.78
2023-11-21T21:14:15.596Z,-5.77
2023-11-21T21:16:18.441Z,-5.70
2023-11-21T21:18:23.065Z,-5.74
2023-11-21T21:20:26.017Z,-5.78
2023-11-21T21:22:28.852Z,-5.83
2023-11-21T21:24:31.724Z,-5.81
2023-11-21T21:26:36.116Z,-5.83
2023-11-21T21:28:38.943Z,-5.80
2023-11-21T21:30:43.332Z,-5.86
2023-11-21T21:32:46.232Z,-5.82
2023-11-21T21:34:49.027Z,-5.85
2023-11-21T21:36:51.918Z,-5.90
2023-11-21T21:38:54.787Z,-5.94
2023-11-21T21:40:58.231Z,-5.97
2023-11-21T21:43:02.534Z,-5.87
2023-11-21T21:45:06.033Z,-5.90
2023-11-21T21:47:09.114Z,-5.82
2023-11-21T21:49:12.822Z,-5.88
2023-11-21T21:51:20.464Z,-5.95
2023-11-21T21:53:23.738Z,-5.91
2023-11-21T21:55:28.664Z,-5.81
2023-11-21T21:57:31.581Z,-5.83
2023-11-21T21:59:34.528Z,-5.91
2023-11-21T22:01:38.868Z,-5.86
2023-11-21T22:03:41.957Z,-5.90
2023-11-21T22:05:44.888Z,-5.86
2023-11-21T22:07:47.695Z,-5.89
2023-11-21T22:09:51.181Z,-5.96
2023-11-21T22:11:54.940Z,-5.95
2023-11-21T22:13:57.753Z,-6.07
2023-11-21T22:16:00.697Z,-6.03
2023-11-21T22:18:03.664Z,-6.07
2023-11-21T22:20:07.223Z,-6.02
2023-11-21T22:22:10.090Z,-6.06
2023-11-21T22:24:12.909Z,-6.10
2023-11-21T22:26:21.758Z,-6.10
2023-11-21T22:28:24.798Z,-6.10
2023-11-21T22:30:28.184Z,-6.14
2023-11-21T22:32:31.424Z,-6.17
2023-11-21T22:34:34.358Z,-6.20
2023-11-21T22:36:37.220Z,-6.22
2023-11-21T22:38:42.145Z,-6.24
2023-11-21T22:40:45.140Z,-6.23
2023-11-21T22:42:48.110Z,-6.29
2023-11-21T22:44:51.171Z,-6.30
2023-11-21T22:46:54.401Z,-6.28
2023-11-21T22:48:57.757Z,-6.33
2023-11-21T22:51:00.553Z,-6.30
2023-11-21T22:53:03.654Z,-6.33
2023-11-21T22:55:06.634Z,-6.29
2023-11-21T22:57:09.435Z,-6.30
2023-11-21T22:59:12.265Z,-6.32
2023-11-21T23:01:15.682Z,-6.28
2023-11-21T23:03:18.960Z,-6.31
2023-11-21T23:05:22.574Z,-6.36
2023-11-21T23:07:25.359Z,-6.39
2023-11-21T23:09:28.101Z,-6.31
2023-11-21T23:11:31.000Z,-6.36
2023-11-21T23:13:33.833Z,-6.36
2023-11-21T23:15:36.750Z,-6.39
2023-11-21T23:17:41.564Z,-6.39
2023-11-21T23:19:48.588Z,-6.39
2023-11-21T23:21:56.893Z,-6.42
2023-11-21T23:24:10.935Z,-6.40
2023-11-21T23:26:18.205Z,-6.41
2023-11-21T23:28:21.516Z,-6.38
2023-11-21T23:30:25.331Z,-6.43
2023-11-21T23:32:28.225Z,-6.38
2023-11-21T23:34:49.598Z,-6.44
2023-11-21T23:36:52.549Z,-6.41
2023-11-21T23:38:55.527Z,-6.38
2023-11-21T23:40:58.388Z,-6.43
2023-11-21T23:43:01.247Z,-6.39
2023-11-21T23:45:04.650Z,-6.43
2023-11-21T23:47:10.121Z,-6.43
2023-11-21T23:49:13.008Z,-6.45
2023-11-21T23:51:16.757Z,-6.46
2023-11-21T23:53:19.778Z,-6.43
2023-11-21T23:55:22.692Z,-6.47
2023-11-21T23:57:25.481Z,-6.47
2023-11-21T23:59:28.502Z,-6.47
